createdAt,value
2023-01-02T00:01:00.542Z,71.22
2023-01-02T00:03:02.540Z,71.09
2023-01-02T00:05:04.785Z,70.87
2023-01-02T00:07:06.887Z,70.67
2023-01-02T00:09:09.613Z,71.01
2023-01-02T00:11:11.462Z,70.88
2023-01-02T00:13:14.831Z,70.78
2023-01-02T00:15:16.745Z,71.07
2023-01-02T00:17:20.779Z,70.97
2023-01-02T00:19:24.645Z,70.48
2023-01-02T00:21:26.552Z,70.59
2023-01-02T00:23:30.288Z,70.89
2023-01-02T00:25:35.024Z,71.23
2023-01-02T00:27:36.919Z,70.98
2023-01-02T00:29:39.892Z,70.90
2023-01-02T00:31:41.925Z,71.21
2023-01-02T00:33:44.831Z,71.32
2023-01-02T00:35:46.794Z,71.04
2023-01-02T00:37:48.702Z,71.39
2023-01-02T00:39:50.576Z,71.03
2023-01-02T00:41:52.525Z,70.87
2023-01-02T00:43:54.437Z,70.49
2023-01-02T00:45:56.617Z,70.88
2023-01-02T00:47:58.516Z,70.63
2023-01-02T00:50:00.504Z,70.64
2023-01-02T00:52:02.736Z,70.37
2023-01-02T00:54:04.715Z,70.78
2023-01-02T00:56:07.038Z,70.64
2023-01-02T00:58:08.960Z,70.53
2023-01-02T01:00:11.486Z,70.69
2023-01-02T01:02:13.505Z,70.88
2023-01-02T01:04:15.515Z,70.34
2023-01-02T01:06:17.418Z,70.31
2023-01-02T01:08:19.322Z,70.73
2023-01-02T01:10:22.029Z,70.61
2023-01-02T01:12:23.910Z,71.01
2023-01-02T01:14:25.869Z,70.52
2023-01-02T01:16:27.856Z,71.06
2023-01-02T01:18:29.766Z,70.52
2023-01-02T01:20:31.696Z,70.48
2023-01-02T01:22:33.766Z,70.89
2023-01-02T01:24:35.652Z,70.96
2023-01-02T01:26:37.526Z,71.03
2023-01-02T01:28:40.776Z,70.43
2023-01-02T01:30:42.611Z,70.58
2023-01-02T01:32:44.505Z,70.55
2023-01-02T01:34:46.511Z,70.79
2023-01-02T01:36:48.333Z,70.56
2023-01-02T01:38:50.938Z,70.27
2023-01-02T01:40:53.768Z,70.50
2023-01-02T01:43:00.773Z,70.06
2023-01-02T01:45:04.351Z,70.04
2023-01-02T01:47:15.763Z,70.35
2023-01-02T01:49:24.848Z,70.53
2023-01-02T01:51:29.670Z,70.73
2023-01-02T01:53:31.987Z,70.36
2023-01-02T01:55:38.882Z,70.23
2023-01-02T01:58:08.717Z,70.24
2023-01-02T02:00:11.612Z,70.07
2023-01-02T02:02:14.502Z,69.89
2023-01-02T02:04:18.087Z,70.04
2023-01-02T02:06:20.536Z,69.83
2023-01-02T02:08:43.033Z,70.43
2023-01-02T02:10:45.814Z,70.94
2023-01-02T02:12:47.760Z,70.19
2023-01-02T02:14:49.605Z,70.26
2023-01-02T02:17:06.979Z,70.34
2023-01-02T02:19:38.451Z,70.33
2023-01-02T02:21:55.267Z,70.21
2023-01-02T02:24:21.684Z,70.32
2023-01-02T02:26:33.919Z,70.27
2023-01-02T02:29:04.808Z,70.40
2023-01-02T02:31:16.126Z,69.93
2023-01-02T02:33:53.474Z,70.16
2023-01-02T02:36:19.279Z,70.83
2023-01-02T02:38:39.152Z,71.01
2023-01-02T02:40:49.282Z,70.63
2023-01-02T02:43:01.298Z,71.00
2023-01-02T02:45:29.119Z,71.74
2023-01-02T02:47:43.092Z,71.43
2023-01-02T02:50:02.947Z,71.48
2023-01-02T02:52:15.537Z,71.57
2023-01-02T02:54:37.590Z,72.06
2023-01-02T02:56:42.178Z,71.84
2023-01-02T02:58:47.302Z,71.83
2023-01-02T03:00:49.572Z,71.77
2023-01-02T03:02:52.170Z,71.85
2023-01-02T03:04:59.874Z,72.23
2023-01-02T03:07:17.993Z,71.48
2023-01-02T03:09:24.908Z,71.27
2023-01-02T03:11:51.015Z,70.71
2023-01-02T03:14:08.068Z,71.06
2023-01-02T03:16:20.086Z,71.05
2023-01-02T03:18:32.395Z,70.96
2023-01-02T03:20:40.371Z,71.13
2023-01-02T03:22:49.906Z,70.74
2023-01-02T03:24:55.836Z,70.74
2023-01-02T03:27:03.912Z,71.14
2023-01-02T03:29:13.023Z,71.61
2023-01-02T03:31:21.168Z,71.07
2023-01-02T03:33:30.724Z,71.54
2023-01-02T03:35:45.550Z,71.60
2023-01-02T03:37:54.057Z,71.44
2023-01-02T03:40:01.393Z,71.43
2023-01-02T03:42:13.082Z,71.55
2023-01-02T03:44:17.710Z,71.63
2023-01-02T03:46:21.813Z,71.72
2023-01-02T03:48:39.916Z,72.10
2023-01-02T03:50:53.218Z,72.72
2023-01-02T03:52:56.695Z,73.00
2023-01-02T03:55:00.733Z,73.27
2023-01-02T03:57:33.864Z,73.15
2023-01-02T03:59:48.553Z,73.19
2023-01-02T04:02:03.313Z,72.72
2023-01-02T04:04:46.894Z,73.41
2023-01-02T04:06:58.545Z,72.99
2023-01-02T04:09:21.720Z,73.27
2023-01-02T04:11:26.704Z,72.71
2023-01-02T04:13:35.939Z,73.61
2023-01-02T04:15:41.197Z,73.29
2023-01-02T04:18:18.853Z,73.35
2023-01-02T04:20:34.845Z,73.33
2023-01-02T04:22:46.067Z,73.77
2023-01-02T04:24:55.053Z,74.07
2023-01-02T04:27:26.070Z,74.21
2023-01-02T04:29:28.427Z,74.76
2023-01-02T04:31:36.768Z,75.90
2023-01-02T04:33:45.488Z,74.73
2023-01-02T04:35:47.497Z,74.77
2023-01-02T04:37:49.639Z,74.69
2023-01-02T04:39:51.932Z,75.12
2023-01-02T04:41:53.908Z,74.66
2023-01-02T04:43:57.721Z,73.94
2023-01-02T04:45:59.957Z,73.46
2023-01-02T04:48:01.840Z,73.68
2023-01-02T04:50:08.358Z,73.55
2023-01-02T04:52:10.398Z,73.68
2023-01-02T04:54:12.527Z,74.04
2023-01-02T04:56:14.393Z,73.97
2023-01-02T04:58:16.335Z,74.08
2023-01-02T05:00:18.314Z,74.12
2023-01-02T05:02:20.297Z,74.49
2023-01-02T05:04:22.235Z,74.22
2023-01-02T05:06:24.126Z,75.31
2023-01-02T05:08:26.029Z,75.02
2023-01-02T05:10:27.876Z,74.74
2023-01-02T05:12:29.866Z,75.21
2023-01-02T05:14:31.974Z,75.37
2023-01-02T05:16:35.929Z,75.35
2023-01-02T05:18:38.024Z,75.70
2023-01-02T05:20:39.963Z,75.90
2023-01-02T05:23:01.433Z,75.60
2023-01-02T05:25:03.369Z,75.40
2023-01-02T05:27:06.284Z,75.29
2023-01-02T05:29:08.169Z,75.62
2023-01-02T05:31:10.526Z,75.51
2023-01-02T05:33:12.516Z,75.75
2023-01-02T05:35:14.621Z,75.51
2023-01-02T05:37:16.514Z,75.53
2023-01-02T05:39:18.550Z,75.36
2023-01-02T05:41:21.747Z,75.68
2023-01-02T05:43:23.605Z,75.45
2023-01-02T05:45:27.185Z,75.35
2023-01-02T05:47:29.100Z,76.00
2023-01-02T05:49:31.073Z,75.65
2023-01-02T05:51:33.407Z,75.91
2023-01-02T05:53:35.861Z,75.89
2023-01-02T05:55:37.716Z,75.79
2023-01-02T05:57:40.216Z,75.97
2023-01-02T05:59:42.113Z,76.01
2023-01-02T06:01:44.137Z,75.73
2023-01-02T06:03:47.808Z,76.02
2023-01-02T06:05:49.665Z,75.89
2023-01-02T06:07:51.595Z,76.32
2023-01-02T06:09:53.401Z,76.36
2023-01-02T06:11:55.427Z,76.46
2023-01-02T06:13:58.164Z,76.31
2023-01-02T06:16:01.690Z,76.12
2023-01-02T06:18:03.657Z,76.68
2023-01-02T06:20:07.194Z,76.78
2023-01-02T06:22:09.101Z,76.56
2023-01-02T06:24:11.056Z,76.80
2023-01-02T06:26:20.434Z,77.02
2023-01-02T06:28:23.340Z,76.86
2023-01-02T06:30:25.281Z,77.24
2023-01-02T06:32:27.183Z,77.15
2023-01-02T06:34:29.068Z,77.25
2023-01-02T06:36:32.965Z,77.12
2023-01-02T06:38:35.268Z,77.88
2023-01-02T06:40:37.235Z,77.62
2023-01-02T06:42:40.128Z,78.35
2023-01-02T06:44:42.109Z,78.35
2023-01-02T06:46:44.069Z,78.41
2023-01-02T06:48:46.776Z,78.44
2023-01-02T06:50:48.760Z,78.05
2023-01-02T06:52:51.629Z,78.64
2023-01-02T06:54:54.615Z,78.57
2023-01-02T06:56:57.625Z,78.57
2023-01-02T06:59:01.799Z,78.83
2023-01-02T07:01:16.557Z,78.57
2023-01-02T07:03:19.167Z,78.57
2023-01-02T07:05:24.564Z,78.45
2023-01-02T07:07:26.879Z,78.21
2023-01-02T07:09:28.909Z,78.13
2023-01-02T07:11:30.828Z,77.84
2023-01-02T07:13:32.783Z,78.03
2023-01-02T07:15:34.861Z,77.80
2023-01-02T07:17:37.791Z,77.54
2023-01-02T07:19:40.732Z,77.63
2023-01-02T07:21:42.888Z,77.74
2023-01-02T07:23:44.998Z,77.48
2023-01-02T07:25:55.602Z,76.96
2023-01-02T07:27:59.555Z,77.30
2023-01-02T07:30:01.491Z,77.29
2023-01-02T07:32:03.660Z,77.12
2023-01-02T07:34:06.042Z,77.08
2023-01-02T07:36:11.551Z,76.51
2023-01-02T07:38:13.549Z,76.51
2023-01-02T07:40:16.591Z,76.15
2023-01-02T07:42:18.500Z,76.33
2023-01-02T07:44:21.322Z,76.07
2023-01-02T07:46:23.866Z,75.76
2023-01-02T07:48:25.839Z,75.47
2023-01-02T07:50:27.872Z,75.27
2023-01-02T07:52:30.873Z,75.51
2023-01-02T07:54:32.876Z,75.64
2023-01-02T07:56:34.817Z,75.31
2023-01-02T07:58:37.085Z,75.34
2023-01-02T08:00:42.424Z,75.19
2023-01-02T08:02:53.038Z,74.73
2023-01-02T08:04:55.221Z,75.00
2023-01-02T08:06:57.167Z,74.94
2023-01-02T08:08:59.093Z,74.75
2023-01-02T08:11:08.205Z,74.86
2023-01-02T08:13:10.144Z,74.35
2023-01-02T08:15:12.062Z,74.00
2023-01-02T08:17:14.011Z,74.49
2023-01-02T08:19:15.939Z,74.26
2023-01-02T08:21:18.234Z,73.63
2023-01-02T08:23:20.193Z,73.10
2023-01-02T08:25:22.412Z,72.80
2023-01-02T08:27:24.384Z,72.40
2023-01-02T08:29:26.370Z,72.00
2023-01-02T08:31:28.386Z,72.46
2023-01-02T08:33:30.312Z,72.16
2023-01-02T08:35:38.280Z,72.34
2023-01-02T08:37:44.333Z,71.23
2023-01-02T08:39:49.757Z,71.32
2023-01-02T08:41:52.940Z,71.15
2023-01-02T08:43:54.862Z,70.29
2023-01-02T08:45:57.093Z,70.68
2023-01-02T08:47:59.247Z,70.44
2023-01-02T08:50:02.190Z,70.15
2023-01-02T08:52:04.241Z,70.55
2023-01-02T08:54:06.334Z,70.03
2023-01-02T08:56:26.568Z,69.92
2023-01-02T08:58:28.475Z,70.21
2023-01-02T09:00:30.425Z,69.80
2023-01-02T09:02:33.066Z,69.82
2023-01-02T09:04:37.156Z,69.99
2023-01-02T09:06:39.122Z,70.44
2023-01-02T09:08:41.383Z,69.68
2023-01-02T09:10:45.248Z,70.11
2023-01-02T09:12:47.222Z,69.47
2023-01-02T09:14:49.159Z,69.39
2023-01-02T09:16:52.000Z,69.63
2023-01-02T09:18:57.135Z,68.72
2023-01-02T09:20:59.063Z,68.86
2023-01-02T09:23:00.945Z,68.73
2023-01-02T09:25:05.226Z,67.50
2023-01-02T09:27:07.253Z,67.66
2023-01-02T09:29:10.786Z,66.88
2023-01-02T09:31:18.408Z,66.79
2023-01-02T09:33:20.429Z,66.19
2023-01-02T09:35:22.602Z,65.38
2023-01-02T09:37:24.568Z,64.95
2023-01-02T09:39:32.471Z,64.69
2023-01-02T09:41:52.351Z,64.29
2023-01-02T09:44:14.809Z,64.08
2023-01-02T09:46:48.076Z,63.64
2023-01-02T09:48:50.121Z,63.29
2023-01-02T09:50:52.092Z,63.70
2023-01-02T09:53:00.481Z,64.12
2023-01-02T09:55:04.645Z,64.00
2023-01-02T09:57:15.910Z,64.27
2023-01-02T09:59:27.714Z,64.11
2023-01-02T10:01:49.296Z,64.59
2023-01-02T10:04:21.748Z,65.15
2023-01-02T10:06:40.176Z,64.69
2023-01-02T10:08:59.786Z,64.08
2023-01-02T10:11:20.236Z,64.61
2023-01-02T10:14:08.415Z,64.51
2023-01-02T10:15:53.633Z,64.58
2023-01-02T10:20:28.395Z,64.43
2023-01-02T10:22:42.648Z,64.04
2023-01-02T10:25:25.044Z,63.67
2023-01-02T10:27:34.673Z,63.71
2023-01-02T10:30:21.396Z,63.45
2023-01-02T10:32:23.567Z,63.69
2023-01-02T10:34:25.496Z,63.78
2023-01-02T10:36:33.374Z,63.46
2023-01-02T10:38:38.743Z,63.29
2023-01-02T10:40:44.663Z,63.63
2023-01-02T10:42:49.172Z,62.83
2023-01-02T10:44:56.210Z,63.34
2023-01-02T10:46:59.106Z,63.23
2023-01-02T10:49:01.978Z,63.62
2023-01-02T10:51:14.840Z,63.41
2023-01-02T10:53:35.000Z,63.64
2023-01-02T10:55:43.704Z,63.98
2023-01-02T10:57:51.428Z,63.40
2023-01-02T10:59:58.970Z,63.80
2023-01-02T11:02:01.059Z,63.91
2023-01-02T11:04:13.909Z,63.92
2023-01-02T11:06:30.278Z,63.78
2023-01-02T11:08:38.061Z,64.19
2023-01-02T11:10:40.055Z,64.52
2023-01-02T11:12:48.521Z,64.75
2023-01-02T11:14:50.605Z,65.25
2023-01-02T11:16:53.441Z,64.40
2023-01-02T11:18:58.655Z,64.10
2023-01-02T11:21:05.986Z,64.30
2023-01-02T11:23:15.086Z,64.89
2023-01-02T11:25:26.721Z,64.38
2023-01-02T11:27:35.324Z,65.31
2023-01-02T11:29:40.153Z,64.47
2023-01-02T11:31:50.152Z,64.95
2023-01-02T11:34:12.200Z,64.24
2023-01-02T11:36:16.457Z,64.13
2023-01-02T11:38:40.225Z,64.45
2023-01-02T11:41:02.057Z,63.96
2023-01-02T11:43:29.493Z,63.49
2023-01-02T11:45:32.832Z,64.41
2023-01-02T11:47:40.958Z,63.85
2023-01-02T11:49:49.508Z,63.54
2023-01-02T11:51:58.279Z,64.27
2023-01-02T11:54:04.316Z,63.52
2023-01-02T11:56:22.478Z,63.88
2023-01-02T11:58:48.064Z,64.46
2023-01-02T12:00:54.906Z,64.63
2023-01-02T12:03:18.216Z,63.51
2023-01-02T12:05:32.861Z,63.75
2023-01-02T12:07:47.770Z,63.65
2023-01-02T12:10:04.702Z,63.74
2023-01-02T12:12:26.898Z,63.48
2023-01-02T12:14:54.520Z,63.12
2023-01-02T12:17:31.711Z,62.72
2023-01-02T12:19:39.325Z,62.78
2023-01-02T12:22:08.622Z,62.70
2023-01-02T12:24:29.344Z,62.23
2023-01-02T12:26:56.027Z,61.70
2023-01-02T12:29:47.300Z,61.84
2023-01-02T12:32:08.709Z,62.34
2023-01-02T12:35:02.335Z,62.12
2023-01-02T12:37:20.560Z,61.58
2023-01-02T12:39:57.765Z,61.11
2023-01-02T12:42:18.227Z,60.94
2023-01-02T12:44:48.933Z,61.44
2023-01-02T12:46:50.808Z,60.68
2023-01-02T12:49:01.646Z,60.83
2023-01-02T12:51:18.076Z,60.72
2023-01-02T12:53:44.501Z,61.31
2023-01-02T12:56:07.811Z,60.71
2023-01-02T12:58:40.333Z,60.45
2023-01-02T13:00:51.880Z,60.31
2023-01-02T13:02:53.769Z,60.37
2023-01-02T13:05:02.556Z,59.97
2023-01-02T13:07:20.404Z,60.00
2023-01-02T13:09:40.749Z,59.68
2023-01-02T13:11:46.004Z,59.65
2023-01-02T13:13:49.314Z,59.37
2023-01-02T13:16:03.093Z,59.18
2023-01-02T13:18:25.993Z,59.46
2023-01-02T13:21:04.516Z,60.33
2023-01-02T13:23:21.440Z,59.49
2023-01-02T13:25:24.821Z,59.81
2023-01-02T13:27:27.413Z,60.61
2023-01-02T13:29:42.091Z,60.32
2023-01-02T13:31:50.026Z,60.48
2023-01-02T13:33:58.832Z,60.52
2023-01-02T13:36:17.370Z,61.34
2023-01-02T13:38:25.304Z,60.31
2023-01-02T13:40:33.582Z,61.25
2023-01-02T13:42:56.324Z,61.54
2023-01-02T13:45:00.630Z,60.37
2023-01-02T13:47:25.914Z,60.96
2023-01-02T13:49:34.983Z,61.09
2023-01-02T13:51:38.250Z,61.14
2023-01-02T13:53:40.293Z,60.83
2023-01-02T13:55:42.241Z,61.71
2023-01-02T13:57:44.242Z,62.38
2023-01-02T14:00:01.238Z,62.23
2023-01-02T14:02:16.733Z,62.78
2023-01-02T14:04:22.809Z,61.95
2023-01-02T14:06:39.256Z,62.14
2023-01-02T14:09:17.579Z,62.56
2023-01-02T14:11:57.046Z,62.67
2023-01-02T14:14:00.370Z,62.54
2023-01-02T14:16:13.182Z,62.50
2023-01-02T14:18:30.678Z,62.72
2023-01-02T14:20:55.307Z,62.66
2023-01-02T14:23:04.540Z,63.08
2023-01-02T14:25:06.737Z,63.05
2023-01-02T14:27:24.427Z,63.36
2023-01-02T14:29:28.151Z,63.13
2023-01-02T14:31:35.812Z,63.31
2023-01-02T14:33:40.998Z,63.19
2023-01-02T14:36:03.976Z,63.78
2023-01-02T14:38:19.180Z,63.35
2023-01-02T14:40:25.036Z,63.82
2023-01-02T14:42:52.290Z,63.87
2023-01-02T14:45:00.166Z,63.58
2023-01-02T14:47:03.325Z,63.53
2023-01-02T14:49:26.688Z,63.55
2023-01-02T14:51:37.038Z,63.92
2023-01-02T14:53:50.595Z,63.79
2023-01-02T14:56:01.760Z,63.85
2023-01-02T14:58:05.532Z,64.18
2023-01-02T15:00:15.977Z,63.90
2023-01-02T15:02:25.063Z,63.94
2023-01-02T15:04:40.503Z,64.21
2023-01-02T15:06:46.833Z,64.84
2023-01-02T15:08:52.206Z,64.53
2023-01-02T15:10:58.117Z,64.91
2023-01-02T15:13:11.125Z,65.13
2023-01-02T15:15:17.715Z,65.27
2023-01-02T15:17:24.491Z,65.66
2023-01-02T15:19:31.123Z,65.82
2023-01-02T15:21:39.916Z,65.78
2023-01-02T15:23:48.063Z,65.88
2023-01-02T15:26:32.411Z,66.29
2023-01-02T15:28:32.154Z,66.52
2023-01-02T15:30:41.014Z,66.52
2023-01-02T15:32:48.322Z,66.89
2023-01-02T15:34:50.932Z,67.11
2023-01-02T15:37:02.667Z,66.70
2023-01-02T15:39:38.974Z,67.25
2023-01-02T15:41:46.486Z,67.19
2023-01-02T15:44:11.775Z,67.42
2023-01-02T15:46:17.632Z,67.37
2023-01-02T15:48:26.531Z,67.47
2023-01-02T15:50:35.346Z,67.29
2023-01-02T15:52:37.560Z,67.81
2023-01-02T15:54:49.740Z,67.56
2023-01-02T15:56:52.996Z,67.64
2023-01-02T15:58:54.949Z,67.66
2023-01-02T16:01:22.740Z,67.92
2023-01-02T16:04:01.422Z,67.83
2023-01-02T16:06:15.771Z,67.75
2023-01-02T16:08:28.884Z,68.15
2023-01-02T16:10:33.589Z,68.33
2023-01-02T16:12:35.745Z,67.72
2023-01-02T16:14:47.280Z,67.75
2023-01-02T16:16:55.849Z,67.50
2023-01-02T16:19:00.562Z,67.67
2023-01-02T16:21:14.045Z,68.16
2023-01-02T16:23:21.647Z,68.00
2023-01-02T16:25:32.489Z,68.00
2023-01-02T16:27:47.507Z,68.34
2023-01-02T16:29:53.284Z,68.54
2023-01-02T16:32:04.411Z,68.32
2023-01-02T16:34:14.689Z,68.10
2023-01-02T16:36:24.859Z,68.65
2023-01-02T16:38:53.380Z,68.94
2023-01-02T16:41:03.394Z,68.91
2023-01-02T16:43:08.030Z,69.46
2023-01-02T16:45:19.830Z,69.54
2023-01-02T16:47:37.393Z,69.28
2023-01-02T16:49:39.325Z,68.94
2023-01-02T16:51:45.014Z,69.09
2023-01-02T16:53:53.746Z,69.03
2023-01-02T16:55:56.899Z,69.00
2023-01-02T16:58:00.197Z,69.44
2023-01-02T17:00:03.457Z,69.52
2023-01-02T17:02:15.780Z,69.36
2023-01-02T17:04:17.819Z,69.23
2023-01-02T17:06:21.396Z,69.69
2023-01-02T17:08:23.695Z,69.66
2023-01-02T17:10:26.715Z,69.61
2023-01-02T17:12:41.302Z,69.45
2023-01-02T17:14:54.683Z,69.39
2023-01-02T17:16:57.037Z,69.70
2023-01-02T17:19:02.119Z,69.31
2023-01-02T17:21:05.350Z,70.15
2023-01-02T17:23:09.570Z,69.62
2023-01-02T17:25:14.879Z,69.85
2023-01-02T17:27:21.915Z,69.99
2023-01-02T17:29:31.830Z,69.79
2023-01-02T17:31:36.020Z,70.03
2023-01-02T17:33:38.057Z,70.25
2023-01-02T17:35:40.116Z,70.41
2023-01-02T17:37:43.654Z,70.45
2023-01-02T17:39:46.789Z,70.70
2023-01-02T17:41:49.667Z,71.17
2023-01-02T17:44:01.922Z,71.53
2023-01-02T17:46:30.518Z,71.00
2023-01-02T17:48:36.590Z,71.26
2023-01-02T17:50:38.636Z,71.56
2023-01-02T17:52:42.641Z,71.60
2023-01-02T17:54:47.653Z,71.81
2023-01-02T17:56:56.167Z,71.85
2023-01-02T17:58:59.011Z,72.17
2023-01-02T18:01:01.517Z,72.47
2023-01-02T18:03:05.559Z,72.84
2023-01-02T18:05:13.616Z,72.81
2023-01-02T18:07:16.296Z,73.57
2023-01-02T18:09:21.455Z,73.19
2023-01-02T18:11:24.360Z,72.90
2023-01-02T18:13:30.574Z,72.55
2023-01-02T18:15:35.680Z,72.84
2023-01-02T18:17:38.757Z,73.37
2023-01-02T18:19:42.758Z,73.20
2023-01-02T18:21:45.861Z,73.09
2023-01-02T18:23:50.502Z,73.60
2023-01-02T18:25:54.763Z,73.30
2023-01-02T18:28:27.441Z,73.63
2023-01-02T18:30:31.016Z,73.85
2023-01-02T18:32:37.599Z,73.89
2023-01-02T18:34:49.134Z,73.67
2023-01-02T18:36:53.198Z,73.83
2023-01-02T18:39:27.268Z,74.06
2023-01-02T18:41:32.342Z,74.71
2023-01-02T18:43:41.895Z,74.48
2023-01-02T18:45:52.089Z,75.23
2023-01-02T18:47:58.342Z,74.83
2023-01-02T18:50:09.658Z,74.88
2023-01-02T18:52:11.774Z,74.98
2023-01-02T18:54:34.897Z,74.93
2023-01-02T18:56:59.703Z,75.30
2023-01-02T18:59:30.428Z,75.49
2023-01-02T19:01:45.557Z,75.27
2023-01-02T19:03:48.819Z,75.17
2023-01-02T19:05:52.319Z,75.32
2023-01-02T19:08:14.647Z,75.20
2023-01-02T19:10:36.356Z,75.16
2023-01-02T19:13:07.735Z,75.19
2023-01-02T19:15:36.856Z,75.41
2023-01-02T19:17:51.855Z,75.29
2023-01-02T19:19:59.940Z,75.94
2023-01-02T19:22:22.952Z,75.42
2023-01-02T19:24:34.269Z,75.17
2023-01-02T19:26:48.024Z,74.76
2023-01-02T19:29:12.801Z,74.12
2023-01-02T19:31:17.456Z,74.62
2023-01-02T19:33:40.410Z,73.95
2023-01-02T19:36:00.254Z,73.96
2023-01-02T19:38:35.899Z,73.53
2023-01-02T19:40:40.719Z,73.62
2023-01-02T19:42:49.129Z,73.74
2023-01-02T19:44:59.477Z,73.41
2023-01-02T19:47:03.133Z,73.52
2023-01-02T19:49:06.704Z,73.06
2023-01-02T19:51:09.369Z,73.67
2023-01-02T19:53:12.672Z,74.06
2023-01-02T19:55:18.663Z,73.97
2023-01-02T19:57:23.579Z,73.20
2023-01-02T19:59:26.577Z,73.23
2023-01-02T20:01:31.028Z,73.41
2023-01-02T20:03:35.033Z,73.04
2023-01-02T20:05:37.656Z,72.63
2023-01-02T20:07:46.832Z,71.92
2023-01-02T20:09:50.065Z,71.84
2023-01-02T20:12:18.350Z,71.77
2023-01-02T20:14:27.201Z,71.90
2023-01-02T20:16:31.843Z,72.11
2023-01-02T20:18:35.042Z,72.36
2023-01-02T20:20:37.660Z,72.24
2023-01-02T20:22:41.875Z,71.96
2023-01-02T20:24:44.146Z,72.06
2023-01-02T20:26:51.715Z,72.18
2023-01-02T20:29:00.636Z,72.10
2023-01-02T20:31:04.629Z,71.53
2023-01-02T20:33:07.214Z,71.53
2023-01-02T20:35:10.059Z,71.31
2023-01-02T20:37:21.994Z,71.55
2023-01-02T20:39:24.458Z,71.37
2023-01-02T20:41:27.236Z,71.81
2023-01-02T20:43:29.797Z,71.79
2023-01-02T20:45:32.569Z,71.83
2023-01-02T20:47:37.048Z,71.83
2023-01-02T20:49:41.620Z,71.45
2023-01-02T20:51:46.232Z,71.80
2023-01-02T20:53:50.070Z,72.12
2023-01-02T20:55:53.088Z,72.27
2023-01-02T20:58:00.222Z,72.01
2023-01-02T21:00:10.719Z,72.24
2023-01-02T21:02:14.016Z,73.11
2023-01-02T21:04:32.559Z,73.01
2023-01-02T21:06:39.962Z,73.12
2023-01-02T21:08:43.555Z,73.08
2023-01-02T21:10:45.954Z,72.96
2023-01-02T21:13:09.210Z,73.38
2023-01-02T21:15:35.118Z,73.05
2023-01-02T21:17:38.937Z,72.96
2023-01-02T21:19:41.488Z,72.85
2023-01-02T21:21:45.123Z,73.31
2023-01-02T21:23:51.811Z,73.36
2023-01-02T21:25:54.415Z,73.55
2023-01-02T21:27:57.510Z,73.86
2023-01-02T21:30:00.495Z,73.87
2023-01-02T21:32:03.713Z,73.63
2023-01-02T21:34:05.750Z,73.35
2023-01-02T21:36:11.235Z,73.16
2023-01-02T21:38:14.798Z,73.44
2023-01-02T21:40:18.186Z,72.73
2023-01-02T21:42:20.279Z,72.88
2023-01-02T21:44:25.379Z,72.83
2023-01-02T21:46:27.522Z,72.85
2023-01-02T21:48:32.479Z,72.88
2023-01-02T21:50:35.101Z,72.79
2023-01-02T21:52:37.455Z,72.62
2023-01-02T21:54:43.200Z,73.05
2023-01-02T21:56:45.187Z,72.76
2023-01-02T21:58:48.131Z,72.41
2023-01-02T22:00:50.099Z,72.84
2023-01-02T22:02:52.975Z,72.93
2023-01-02T22:04:55.091Z,72.59
2023-01-02T22:07:30.661Z,72.53
2023-01-02T22:09:19.324Z,72.96
2023-01-02T22:11:41.005Z,72.42
2023-01-02T22:13:42.945Z,73.00
2023-01-02T22:15:47.286Z,72.65
2023-01-02T22:17:49.562Z,73.37
2023-01-02T22:20:16.876Z,73.04
2023-01-02T22:22:20.339Z,72.67
2023-01-02T22:24:24.160Z,72.77
2023-01-02T22:26:29.192Z,73.12
2023-01-02T22:28:36.251Z,72.90
2023-01-02T22:30:43.662Z,73.06
2023-01-02T22:32:48.847Z,72.92
2023-01-02T22:34:54.247Z,73.50
2023-01-02T22:37:02.158Z,73.44
2023-01-02T22:39:28.882Z,73.64
2023-01-02T22:41:38.043Z,73.54
2023-01-02T22:43:43.518Z,73.56
2023-01-02T22:45:50.273Z,73.21
2023-01-02T22:47:59.815Z,73.39
2023-01-02T22:50:03.067Z,73.33
2023-01-02T22:52:11.019Z,73.06
2023-01-02T22:54:18.862Z,73.00
2023-01-02T22:56:24.832Z,73.08
2023-01-02T22:58:33.174Z,72.76
2023-01-02T23:00:38.642Z,73.30
2023-01-02T23:02:47.630Z,73.09
2023-01-02T23:04:56.953Z,73.15
2023-01-02T23:07:23.285Z,73.23
2023-01-02T23:09:21.245Z,72.86
2023-01-02T23:11:24.602Z,73.01
2023-01-02T23:13:27.028Z,73.17
2023-01-02T23:15:30.385Z,73.16
2023-01-02T23:17:50.675Z,73.66
2023-01-02T23:19:52.688Z,72.61
2023-01-02T23:21:58.362Z,72.83
2023-01-02T23:24:01.005Z,72.86
2023-01-02T23:26:05.547Z,72.89
2023-01-02T23:28:07.500Z,72.62
2023-01-02T23:30:10.215Z,72.56
2023-01-02T23:32:12.986Z,72.62
2023-01-02T23:34:17.443Z,72.19
2023-01-02T23:36:20.611Z,72.17
2023-01-02T23:38:22.629Z,72.04
2023-01-02T23:40:26.321Z,71.49
2023-01-02T23:42:32.298Z,71.87
2023-01-02T23:44:34.300Z,71.46
2023-01-02T23:46:36.315Z,71.26
2023-01-02T23:48:38.297Z,70.86
2023-01-02T23:50:46.263Z,71.58
2023-01-02T23:52:48.172Z,71.39
2023-01-02T23:54:50.123Z,71.45
2023-01-02T23:56:52.379Z,71.52
2023-01-02T23:58:57.246Z,71.88
